createdAt,value
2022-12-11T00:00:49.553Z,0.76
2022-12-11T00:03:17.094Z,0.76
2022-12-11T00:05:44.990Z,0.72
2022-12-11T00:08:12.441Z,0.72
2022-12-11T00:10:39.100Z,0.72
2022-12-11T00:13:05.692Z,0.72
2022-12-11T00:15:32.250Z,0.76
2022-12-11T00:17:58.712Z,0.69
2022-12-11T00:20:25.325Z,0.67
2022-12-11T00:22:51.789Z,0.74
2022-12-11T00:25:18.428Z,0.73
2022-12-11T00:27:46.769Z,0.77
2022-12-11T00:30:14.695Z,0.78
2022-12-11T00:32:44.155Z,0.73
2022-12-11T00:35:11.391Z,0.79
2022-12-11T00:37:38.068Z,0.80
2022-12-11T00:40:04.987Z,0.79
2022-12-11T00:42:31.463Z,0.77
2022-12-11T00:44:57.973Z,0.78
2022-12-11T00:47:24.425Z,0.72
2022-12-11T00:49:50.873Z,0.74
2022-12-11T00:52:17.978Z,0.82
2022-12-11T00:54:45.008Z,0.77
2022-12-11T00:57:11.473Z,0.81
2022-12-11T00:59:38.476Z,0.73
2022-12-11T01:02:04.937Z,0.78
2022-12-11T01:04:32.372Z,0.78
2022-12-11T01:06:58.955Z,0.75
2022-12-11T01:09:43.793Z,0.73
2022-12-11T01:12:10.245Z,0.78
2022-12-11T01:14:36.813Z,0.75
2022-12-11T01:17:03.361Z,0.72
2022-12-11T01:19:30.117Z,0.72
2022-12-11T01:21:56.642Z,0.78
2022-12-11T01:24:23.135Z,0.77
2022-12-11T01:26:49.580Z,0.80
2022-12-11T01:29:16.050Z,0.78
2022-12-11T01:31:42.534Z,0.73
2022-12-11T01:34:08.985Z,0.81
2022-12-11T01:36:35.478Z,0.85
2022-12-11T01:39:02.023Z,0.85
2022-12-11T01:41:29.158Z,0.87
2022-12-11T01:43:57.619Z,0.89
2022-12-11T01:46:24.913Z,0.89
2022-12-11T01:48:51.748Z,0.88
2022-12-11T01:51:18.358Z,0.84
2022-12-11T01:53:51.486Z,0.88
2022-12-11T01:56:18.470Z,0.88
2022-12-11T01:58:52.361Z,0.90
2022-12-11T02:01:28.314Z,0.87
2022-12-11T02:03:56.404Z,0.88
2022-12-11T02:06:31.245Z,0.90
2022-12-11T02:08:57.853Z,0.95
2022-12-11T02:11:35.019Z,0.94
2022-12-11T02:14:40.173Z,0.92
2022-12-11T02:17:28.247Z,0.93
2022-12-11T02:20:22.766Z,0.98
2022-12-11T02:22:49.706Z,0.99
2022-12-11T02:25:32.974Z,0.96
2022-12-11T02:28:14.710Z,0.99
2022-12-11T02:30:42.789Z,0.97
2022-12-11T02:33:13.669Z,0.98
2022-12-11T02:35:44.164Z,0.99
2022-12-11T02:38:13.822Z,1.04
2022-12-11T02:40:42.622Z,1.03
2022-12-11T02:43:13.505Z,0.99
2022-12-11T02:45:42.475Z,1.06
2022-12-11T02:48:11.670Z,1.00
2022-12-11T02:50:45.795Z,1.08
2022-12-11T02:53:15.994Z,1.10
2022-12-11T02:55:43.950Z,1.04
2022-12-11T02:58:18.054Z,1.02
2022-12-11T03:00:46.064Z,1.01
2022-12-11T03:03:13.216Z,1.05
2022-12-11T03:05:41.917Z,1.01
2022-12-11T03:08:08.781Z,1.01
2022-12-11T03:10:35.282Z,0.98
2022-12-11T03:13:03.064Z,1.04
2022-12-11T03:15:48.587Z,1.08
2022-12-11T03:18:20.651Z,1.11
2022-12-11T03:21:05.699Z,1.14
2022-12-11T03:23:36.536Z,1.09
2022-12-11T03:26:10.626Z,1.07
2022-12-11T03:28:47.095Z,1.10
2022-12-11T03:31:26.475Z,1.11
2022-12-11T03:33:57.546Z,1.14
2022-12-11T03:36:30.285Z,1.05
2022-12-11T03:39:01.768Z,1.13
2022-12-11T03:41:31.201Z,1.13
2022-12-11T03:43:58.988Z,1.13
2022-12-11T03:46:31.860Z,1.14
2022-12-11T03:49:03.092Z,1.19
2022-12-11T03:51:32.404Z,1.18
2022-12-11T03:54:00.123Z,1.21
2022-12-11T03:56:30.293Z,1.21
2022-12-11T03:58:56.774Z,1.23
2022-12-11T04:01:23.350Z,1.21
2022-12-11T04:03:49.901Z,1.16
2022-12-11T04:06:16.434Z,1.12
2022-12-11T04:08:42.879Z,1.16
2022-12-11T04:11:29.231Z,1.15
2022-12-11T04:14:14.086Z,1.11
2022-12-11T04:16:40.497Z,1.07
2022-12-11T04:19:25.219Z,1.15
2022-12-11T04:22:10.022Z,1.13
2022-12-11T04:24:36.431Z,1.09
2022-12-11T04:27:02.938Z,1.10
2022-12-11T04:29:29.444Z,1.15
2022-12-11T04:31:55.953Z,1.13
2022-12-11T04:34:22.594Z,1.12
2022-12-11T04:36:49.007Z,1.17
2022-12-11T04:39:15.587Z,1.14
2022-12-11T04:41:42.527Z,1.20
2022-12-11T04:44:09.000Z,1.21
2022-12-11T04:46:36.050Z,1.21
2022-12-11T04:49:02.622Z,1.26
2022-12-11T04:51:29.500Z,1.24
2022-12-11T04:53:56.063Z,1.24
2022-12-11T04:56:22.711Z,1.24
2022-12-11T04:58:49.438Z,1.25
2022-12-11T05:01:19.165Z,1.21
2022-12-11T05:03:46.446Z,1.22
2022-12-11T05:06:13.599Z,1.24
2022-12-11T05:08:41.898Z,1.16
2022-12-11T05:11:10.763Z,1.18
2022-12-11T05:13:37.557Z,1.25
2022-12-11T05:16:06.068Z,1.25
2022-12-11T05:18:32.679Z,1.25
2022-12-11T05:21:01.611Z,1.24
2022-12-11T05:23:28.914Z,1.22
2022-12-11T05:25:58.357Z,1.24
2022-12-11T05:28:28.411Z,1.27
2022-12-11T05:30:59.776Z,1.29
2022-12-11T05:33:26.497Z,1.30
2022-12-11T05:35:53.276Z,1.33
2022-12-11T05:38:20.049Z,1.29
2022-12-11T05:41:15.311Z,1.34
2022-12-11T05:43:42.549Z,1.26
2022-12-11T05:46:10.825Z,1.28
2022-12-11T05:48:38.203Z,1.31
2022-12-11T05:51:06.677Z,1.29
2022-12-11T05:53:33.356Z,1.30
2022-12-11T05:56:08.748Z,1.33
2022-12-11T05:58:35.534Z,1.30
2022-12-11T06:01:02.753Z,1.27
2022-12-11T06:03:29.235Z,1.29
2022-12-11T06:05:55.799Z,1.34
2022-12-11T06:08:22.265Z,1.32
2022-12-11T06:10:50.142Z,1.35
2022-12-11T06:13:16.874Z,1.35
2022-12-11T06:15:43.386Z,1.34
2022-12-11T06:18:10.655Z,1.33
2022-12-11T06:20:37.339Z,1.33
2022-12-11T06:23:03.800Z,1.34
2022-12-11T06:25:30.743Z,1.35
2022-12-11T06:27:57.212Z,1.34
2022-12-11T06:30:23.964Z,1.35
2022-12-11T06:33:05.251Z,1.39
2022-12-11T06:35:31.694Z,1.40
2022-12-11T06:37:59.282Z,1.35
2022-12-11T06:40:25.715Z,1.39
2022-12-11T06:42:52.130Z,1.37
2022-12-11T06:45:18.543Z,1.39
2022-12-11T06:47:44.979Z,1.39
2022-12-11T06:50:11.583Z,1.40
2022-12-11T06:52:38.024Z,1.41
2022-12-11T06:55:05.079Z,1.40
2022-12-11T06:57:31.527Z,1.39
2022-12-11T06:59:57.996Z,1.37
2022-12-11T07:02:24.476Z,1.39
2022-12-11T07:04:55.078Z,1.41
2022-12-11T07:07:21.865Z,1.40
2022-12-11T07:09:48.397Z,1.42
2022-12-11T07:12:14.899Z,1.44
2022-12-11T07:14:41.315Z,1.44
2022-12-11T07:17:07.871Z,1.45
2022-12-11T07:19:34.406Z,1.44
2022-12-11T07:22:00.829Z,1.43
2022-12-11T07:24:27.286Z,1.48
2022-12-11T07:26:53.776Z,1.47
2022-12-11T07:29:20.226Z,1.47
2022-12-11T07:31:46.803Z,1.49
2022-12-11T07:34:14.205Z,1.48
2022-12-11T07:36:41.110Z,1.49
2022-12-11T07:39:08.981Z,1.50
2022-12-11T07:41:35.467Z,1.49
2022-12-11T07:44:03.466Z,1.53
2022-12-11T07:46:32.284Z,1.53
2022-12-11T07:49:00.828Z,1.49
2022-12-11T07:51:30.575Z,1.50
2022-12-11T07:53:59.802Z,1.48
2022-12-11T07:56:27.504Z,1.47
2022-12-11T07:58:54.380Z,1.54
2022-12-11T08:01:26.940Z,1.54
2022-12-11T08:03:54.397Z,1.49
2022-12-11T08:06:29.678Z,1.50
2022-12-11T08:08:57.550Z,1.50
2022-12-11T08:11:24.850Z,1.57
2022-12-11T08:13:51.495Z,1.60
2022-12-11T08:16:18.326Z,1.55
2022-12-11T08:18:46.566Z,1.52
2022-12-11T08:21:18.563Z,1.56
2022-12-11T08:23:45.916Z,1.58
2022-12-11T08:26:21.698Z,1.52
2022-12-11T08:28:48.244Z,1.53
2022-12-11T08:31:16.468Z,1.56
2022-12-11T08:33:43.398Z,1.56
2022-12-11T08:36:12.373Z,1.57
2022-12-11T08:38:39.234Z,1.57
2022-12-11T08:41:14.844Z,1.56
2022-12-11T08:43:41.543Z,1.52
2022-12-11T08:46:08.964Z,1.53
2022-12-11T08:48:37.731Z,1.53
2022-12-11T08:51:06.157Z,1.52
2022-12-11T08:53:33.649Z,1.51
2022-12-11T08:56:11.923Z,1.51
2022-12-11T08:58:38.775Z,1.51
2022-12-11T09:01:10.706Z,1.46
2022-12-11T09:03:38.525Z,1.51
2022-12-11T09:06:22.140Z,1.49
2022-12-11T09:08:52.516Z,1.55
2022-12-11T09:11:22.690Z,1.52
2022-12-11T09:13:49.510Z,1.52
2022-12-11T09:16:18.920Z,1.53
2022-12-11T09:18:47.298Z,1.52
2022-12-11T09:21:17.023Z,1.52
2022-12-11T09:23:44.239Z,1.42
2022-12-11T09:26:13.646Z,1.47
2022-12-11T09:28:45.764Z,1.51
2022-12-11T09:31:19.526Z,1.49
2022-12-11T09:33:46.918Z,1.52
2022-12-11T09:36:13.564Z,1.52
2022-12-11T09:38:40.537Z,1.49
2022-12-11T09:41:22.522Z,1.51
2022-12-11T09:43:54.701Z,1.53
2022-12-11T09:46:24.549Z,1.51
2022-12-11T09:48:53.499Z,1.53
2022-12-11T09:51:24.161Z,1.47
2022-12-11T09:53:51.695Z,1.54
2022-12-11T09:56:26.251Z,1.54
2022-12-11T09:58:52.663Z,1.60
2022-12-11T10:01:34.675Z,1.59
2022-12-11T10:04:25.740Z,1.62
2022-12-11T10:07:10.074Z,1.58
2022-12-11T10:10:02.857Z,1.66
2022-12-11T10:12:32.340Z,1.60
2022-12-11T10:15:17.180Z,1.59
2022-12-11T10:17:44.694Z,1.59
2022-12-11T10:20:20.626Z,1.62
2022-12-11T10:22:48.732Z,1.53
2022-12-11T10:25:37.102Z,1.58
2022-12-11T10:28:17.094Z,1.58
2022-12-11T10:30:54.576Z,1.63
2022-12-11T10:33:26.900Z,1.69
2022-12-11T10:35:55.623Z,1.71
2022-12-11T10:38:34.440Z,1.75
2022-12-11T10:41:04.335Z,1.75
2022-12-11T10:43:42.278Z,1.74
2022-12-11T10:46:20.156Z,1.68
2022-12-11T10:48:53.884Z,1.71
2022-12-11T10:51:40.590Z,1.70
2022-12-11T10:54:18.090Z,1.65
2022-12-11T10:56:48.287Z,1.66
2022-12-11T10:59:30.691Z,1.66
2022-12-11T11:01:58.042Z,1.63
2022-12-11T11:04:31.923Z,1.70
2022-12-11T11:07:26.413Z,1.70
2022-12-11T11:10:11.128Z,1.78
2022-12-11T11:12:47.096Z,1.78
2022-12-11T11:15:16.319Z,1.74
2022-12-11T11:17:55.987Z,1.68
2022-12-11T11:20:29.678Z,1.72
2022-12-11T11:22:59.605Z,1.70
2022-12-11T11:25:28.969Z,1.72
2022-12-11T11:28:05.217Z,1.73
2022-12-11T11:30:38.553Z,1.78
2022-12-11T11:33:13.787Z,1.77
2022-12-11T11:35:51.294Z,1.81
2022-12-11T11:38:21.084Z,1.84
2022-12-11T11:41:07.595Z,1.81
2022-12-11T11:43:51.132Z,1.87
2022-12-11T11:46:17.573Z,1.88
2022-12-11T11:49:09.965Z,1.79
2022-12-11T11:51:41.624Z,1.76
2022-12-11T11:54:21.133Z,1.78
2022-12-11T11:56:53.975Z,1.80
2022-12-11T11:59:49.390Z,1.80
2022-12-11T12:02:17.932Z,1.87
2022-12-11T12:04:46.448Z,1.79
2022-12-11T12:07:34.481Z,1.83
2022-12-11T12:10:18.743Z,1.79
2022-12-11T12:12:57.491Z,1.75
2022-12-11T12:15:43.776Z,1.84
2022-12-11T12:18:32.100Z,1.89
2022-12-11T12:21:12.419Z,1.90
2022-12-11T12:24:05.478Z,1.87
2022-12-11T12:26:35.253Z,1.92
2022-12-11T12:29:13.076Z,1.86
2022-12-11T12:32:01.081Z,1.94
2022-12-11T12:34:57.314Z,1.95
2022-12-11T12:37:30.153Z,1.97
2022-12-11T12:40:08.595Z,2.00
2022-12-11T12:42:46.240Z,2.00
2022-12-11T12:45:12.928Z,2.02
2022-12-11T12:47:43.205Z,1.98
2022-12-11T12:50:17.105Z,2.01
2022-12-11T12:52:44.730Z,2.01
2022-12-11T12:55:18.912Z,1.98
2022-12-11T12:57:52.507Z,1.96
2022-12-11T13:00:38.877Z,1.97
2022-12-11T13:03:20.268Z,1.92
2022-12-11T13:06:02.396Z,1.95
2022-12-11T13:08:34.771Z,1.95
2022-12-11T13:11:05.349Z,1.94
2022-12-11T13:13:41.435Z,1.96
2022-12-11T13:16:25.837Z,2.01
2022-12-11T13:18:53.254Z,2.09
2022-12-11T13:21:48.614Z,2.12
2022-12-11T13:24:25.664Z,2.18
2022-12-11T13:26:52.433Z,2.18
2022-12-11T13:29:51.400Z,2.12
2022-12-11T13:32:17.798Z,2.13
2022-12-11T13:34:53.300Z,2.13
2022-12-11T13:37:33.035Z,2.17
2022-12-11T13:40:03.000Z,2.17
2022-12-11T13:42:49.305Z,2.18
2022-12-11T13:45:23.421Z,2.16
2022-12-11T13:47:50.393Z,2.18
2022-12-11T13:50:25.063Z,2.20
2022-12-11T13:53:00.552Z,2.21
2022-12-11T13:55:30.539Z,2.17
2022-12-11T13:57:58.298Z,2.21
2022-12-11T14:00:32.140Z,2.22
2022-12-11T14:03:03.113Z,2.24
2022-12-11T14:05:29.931Z,2.22
2022-12-11T14:08:00.551Z,2.20
2022-12-11T14:10:32.459Z,2.21
2022-12-11T14:13:31.061Z,2.21
2022-12-11T14:15:57.669Z,2.22
2022-12-11T14:18:29.413Z,2.18
2022-12-11T14:21:01.938Z,2.17
2022-12-11T14:23:33.696Z,2.20
2022-12-11T14:26:04.927Z,2.21
2022-12-11T14:28:38.845Z,2.18
2022-12-11T14:31:06.530Z,2.15
2022-12-11T14:33:38.567Z,2.14
2022-12-11T14:36:06.717Z,2.14
2022-12-11T14:38:38.146Z,2.13
2022-12-11T14:41:20.154Z,2.13
2022-12-11T14:43:51.749Z,2.14
2022-12-11T14:46:24.004Z,2.09
2022-12-11T14:49:00.599Z,2.11
2022-12-11T14:51:31.881Z,2.06
2022-12-11T14:54:00.120Z,2.03
2022-12-11T14:56:29.171Z,2.07
2022-12-11T14:59:00.704Z,2.06
2022-12-11T15:01:38.686Z,2.07
2022-12-11T15:04:14.359Z,2.11
2022-12-11T15:06:46.889Z,2.04
2022-12-11T15:09:35.612Z,2.09
2022-12-11T15:12:17.680Z,2.08
2022-12-11T15:14:50.202Z,2.12
2022-12-11T15:17:17.601Z,2.10
2022-12-11T16:00:21.126Z,1.78
2022-12-11T16:02:47.963Z,1.85
2022-12-11T16:05:14.990Z,1.83
2022-12-11T16:07:41.588Z,1.84
2022-12-11T16:10:13.329Z,1.88
2022-12-11T16:12:42.536Z,1.88
2022-12-11T16:15:10.528Z,1.86
2022-12-11T16:17:37.318Z,1.92
2022-12-11T16:20:04.316Z,1.91
2022-12-11T16:22:31.128Z,1.92
2022-12-11T16:24:57.569Z,1.93
2022-12-11T16:27:24.465Z,1.95
2022-12-11T16:29:51.154Z,1.95
2022-12-11T16:32:18.587Z,1.95
2022-12-11T16:34:45.053Z,1.91
2022-12-11T16:37:11.936Z,1.97
2022-12-11T16:39:38.576Z,1.98
2022-12-11T16:42:06.031Z,2.00
2022-12-11T16:44:32.850Z,1.97
2022-12-11T16:46:59.332Z,2.00
2022-12-11T16:49:25.860Z,2.03
2022-12-11T16:51:52.375Z,1.94
2022-12-11T16:54:19.016Z,2.01
2022-12-11T16:56:45.506Z,2.02
2022-12-11T16:59:12.928Z,2.01
2022-12-11T17:01:39.951Z,2.02
2022-12-11T17:04:06.598Z,1.97
2022-12-11T17:06:33.084Z,1.96
2022-12-11T17:08:59.598Z,1.93
2022-12-11T17:11:26.251Z,1.93
2022-12-11T17:13:55.300Z,1.94
2022-12-11T17:16:24.801Z,1.92
2022-12-11T17:18:51.837Z,1.94
2022-12-11T17:21:20.143Z,1.93
2022-12-11T17:23:46.644Z,1.97
2022-12-11T17:26:13.122Z,1.98
2022-12-11T17:28:40.156Z,2.00
2022-12-11T17:31:08.657Z,1.99
2022-12-11T17:33:35.532Z,1.93
2022-12-11T17:36:04.406Z,1.97
2022-12-11T17:38:31.295Z,1.98
2022-12-11T17:40:58.293Z,1.99
2022-12-11T17:43:24.857Z,1.99
2022-12-11T17:45:52.629Z,2.00
2022-12-11T17:48:22.383Z,2.03
2022-12-11T17:50:50.023Z,2.03
2022-12-11T17:53:18.274Z,2.06
2022-12-11T17:55:46.112Z,2.05
2022-12-11T17:58:15.896Z,2.04
2022-12-11T18:00:44.929Z,2.02
2022-12-11T18:03:12.715Z,2.04
2022-12-11T18:05:47.948Z,2.05
2022-12-11T18:08:16.580Z,2.00
2022-12-11T18:10:43.424Z,2.01
2022-12-11T18:13:10.697Z,2.01
2022-12-11T18:15:37.690Z,2.01
2022-12-11T18:18:05.562Z,2.00
2022-12-11T18:20:33.005Z,1.99
2022-12-11T18:22:59.991Z,1.96
2022-12-11T18:25:27.239Z,1.99
2022-12-11T18:27:57.672Z,2.01
2022-12-11T18:30:25.348Z,1.99
2022-12-11T18:32:52.102Z,1.97
2022-12-11T18:35:18.658Z,1.96
2022-12-11T18:37:45.179Z,1.96
2022-12-11T18:40:14.676Z,1.92
2022-12-11T18:42:41.179Z,1.91
2022-12-11T18:45:08.303Z,1.90
2022-12-11T18:47:34.780Z,1.91
2022-12-11T18:50:05.800Z,1.92
2022-12-11T18:52:34.506Z,1.93
2022-12-11T18:55:00.970Z,1.94
2022-12-11T18:57:27.460Z,1.97
2022-12-11T18:59:54.011Z,1.97
2022-12-11T19:02:21.548Z,1.99
2022-12-11T19:04:48.255Z,2.00
2022-12-11T19:07:14.727Z,1.89
2022-12-11T19:09:46.231Z,1.99
2022-12-11T19:12:14.514Z,2.01
2022-12-11T19:14:41.068Z,2.01
2022-12-11T19:17:07.587Z,1.95
2022-12-11T19:19:34.140Z,1.92
2022-12-11T19:22:00.552Z,1.95
2022-12-11T19:24:27.130Z,1.97
2022-12-11T19:26:53.625Z,1.98
2022-12-11T19:29:29.420Z,1.99
2022-12-11T19:31:56.330Z,2.00
2022-12-11T19:34:23.567Z,2.01
2022-12-11T19:36:50.578Z,2.00
2022-12-11T19:39:17.946Z,1.97
2022-12-11T19:41:44.382Z,1.94
2022-12-11T19:44:11.634Z,1.96
2022-12-11T19:46:38.838Z,1.98
2022-12-11T19:49:05.834Z,1.99
2022-12-11T19:51:36.415Z,2.00
2022-12-11T19:54:04.000Z,1.86
2022-12-11T19:56:31.369Z,2.00
2022-12-11T19:58:58.042Z,2.01
2022-12-11T20:01:28.765Z,1.98
2022-12-11T20:03:58.024Z,1.98
2022-12-11T20:06:24.681Z,1.97
2022-12-11T20:08:51.189Z,1.97
2022-12-11T20:11:19.155Z,1.97
2022-12-11T20:13:49.950Z,1.98
2022-12-11T20:16:20.005Z,1.98
2022-12-11T20:18:55.728Z,2.00
2022-12-11T20:21:22.267Z,1.91
2022-12-11T20:23:49.112Z,1.94
2022-12-11T20:26:18.844Z,1.92
2022-12-11T20:28:47.956Z,1.95
2022-12-11T20:31:20.366Z,1.91
2022-12-11T20:33:49.038Z,1.90
2022-12-11T20:36:17.980Z,1.95
2022-12-11T20:38:45.492Z,1.96
2022-12-11T20:41:17.104Z,1.91
2022-12-11T20:43:44.542Z,1.93
2022-12-11T20:46:17.246Z,1.94
2022-12-11T20:48:45.481Z,1.93
2022-12-11T20:51:16.780Z,1.93
2022-12-11T20:53:45.534Z,1.93
2022-12-11T20:56:16.963Z,1.93
2022-12-11T20:58:45.673Z,1.95
2022-12-11T21:01:20.780Z,1.97
2022-12-11T21:03:47.848Z,1.96
2022-12-11T21:06:45.107Z,1.98
2022-12-11T21:09:16.776Z,1.99
2022-12-11T21:11:43.800Z,1.98
2022-12-11T21:14:10.839Z,1.98
2022-12-11T21:16:38.305Z,1.96
2022-12-11T21:19:05.887Z,1.97
2022-12-11T21:21:42.586Z,1.96
2022-12-11T21:24:15.290Z,1.98
2022-12-11T21:26:42.282Z,1.97
2022-12-11T21:29:09.013Z,1.84
2022-12-11T21:31:35.635Z,1.92
2022-12-11T21:34:02.172Z,1.94
2022-12-11T21:36:28.624Z,1.94
2022-12-11T21:38:55.130Z,1.92
2022-12-11T21:41:23.810Z,1.94
2022-12-11T21:44:56.604Z,1.92
2022-12-11T21:46:39.428Z,1.90
2022-12-11T21:49:06.047Z,1.88
2022-12-11T21:51:38.545Z,1.89
2022-12-11T21:54:10.204Z,1.91
2022-12-11T21:56:36.658Z,1.93
2022-12-11T21:59:03.642Z,1.94
2022-12-11T22:01:34.912Z,1.93
2022-12-11T22:04:02.298Z,1.93
2022-12-11T22:06:28.740Z,1.92
2022-12-11T22:08:55.195Z,1.93
2022-12-11T22:11:26.152Z,1.92
2022-12-11T22:13:52.749Z,1.93
2022-12-11T22:16:19.354Z,1.92
2022-12-11T22:18:46.291Z,1.91
2022-12-11T22:21:12.993Z,1.83
2022-12-11T22:23:40.682Z,1.88
2022-12-11T22:26:09.340Z,1.87
2022-12-11T22:28:36.153Z,1.90
2022-12-11T22:31:02.958Z,1.90
2022-12-11T22:33:29.573Z,1.88
2022-12-11T22:36:00.347Z,1.86
2022-12-11T22:38:27.039Z,1.86
2022-12-11T22:40:54.280Z,1.85
2022-12-11T22:43:21.642Z,1.87
2022-12-11T22:45:48.087Z,1.87
2022-12-11T22:48:14.583Z,1.81
2022-12-11T22:50:43.373Z,1.82
2022-12-11T22:53:10.094Z,1.85
2022-12-11T22:55:39.481Z,1.84
2022-12-11T22:58:06.795Z,1.87
2022-12-11T23:00:33.220Z,1.86
2022-12-11T23:02:59.768Z,1.84
2022-12-11T23:05:26.408Z,1.84
2022-12-11T23:07:53.029Z,1.86
2022-12-11T23:10:19.681Z,1.86
2022-12-11T23:12:46.125Z,1.87
2022-12-11T23:15:13.059Z,1.87
2022-12-11T23:17:39.847Z,1.86
2022-12-11T23:20:07.077Z,1.88
2022-12-11T23:22:34.006Z,1.86
2022-12-11T23:25:01.172Z,1.88
2022-12-11T23:27:28.170Z,1.85
2022-12-11T23:29:55.209Z,1.87
2022-12-11T23:32:21.749Z,1.86
2022-12-11T23:34:48.316Z,1.87
2022-12-11T23:37:15.425Z,1.86
2022-12-11T23:39:41.882Z,1.88
2022-12-11T23:42:09.381Z,1.85
2022-12-11T23:44:35.827Z,1.82
2022-12-11T23:47:02.239Z,1.82
2022-12-11T23:49:28.726Z,1.78
2022-12-11T23:51:56.034Z,1.81
2022-12-11T23:54:22.510Z,1.78
2022-12-11T23:56:48.967Z,1.75
2022-12-11T23:59:15.595Z,1.76
